createdAt,value
2022-08-22T00:00:07.000Z,14.39
2022-08-22T00:01:07.000Z,14.42
2022-08-22T00:02:07.000Z,14.39
2022-08-22T00:03:07.000Z,14.37
2022-08-22T00:04:07.000Z,14.37
2022-08-22T00:05:07.000Z,14.38
2022-08-22T00:06:07.000Z,14.43
2022-08-22T00:07:07.000Z,14.37
2022-08-22T00:08:07.000Z,14.37
2022-08-22T00:09:07.000Z,14.37
2022-08-22T00:10:07.000Z,14.37
2022-08-22T00:11:07.000Z,14.37
2022-08-22T00:12:07.000Z,14.35
2022-08-22T00:13:07.000Z,14.35
2022-08-22T00:14:07.000Z,14.27
2022-08-22T00:15:07.000Z,14.24
2022-08-22T00:16:07.000Z,14.24
2022-08-22T00:17:07.000Z,14.20
2022-08-22T00:18:07.000Z,14.19
2022-08-22T00:19:08.000Z,14.20
2022-08-22T00:20:08.000Z,14.19
2022-08-22T00:21:08.000Z,14.17
2022-08-22T00:22:08.000Z,14.16
2022-08-22T00:23:08.000Z,14.16
2022-08-22T00:24:08.000Z,14.14
2022-08-22T00:25:08.000Z,14.13
2022-08-22T00:26:08.000Z,14.13
2022-08-22T00:27:08.000Z,14.13
2022-08-22T00:28:08.000Z,14.16
2022-08-22T00:29:08.000Z,14.14
2022-08-22T00:30:08.000Z,14.14
2022-08-22T00:31:08.000Z,14.14
2022-08-22T00:32:08.000Z,14.12
2022-08-22T00:33:08.000Z,14.12
2022-08-22T00:34:08.000Z,14.16
2022-08-22T00:35:08.000Z,14.14
2022-08-22T00:36:08.000Z,14.14
2022-08-22T00:37:08.000Z,14.16
2022-08-22T00:37:08.000Z,14.16
2022-08-22T00:38:08.000Z,14.13
2022-08-22T00:38:08.000Z,14.13
2022-08-22T00:39:09.000Z,14.10
2022-08-22T00:39:09.000Z,14.10
2022-08-22T00:40:09.000Z,14.06
2022-08-22T00:40:09.000Z,14.06
2022-08-22T00:41:09.000Z,14.02
2022-08-22T00:41:09.000Z,14.02
2022-08-22T00:42:09.000Z,13.99
2022-08-22T00:43:09.000Z,13.98
2022-08-22T00:44:09.000Z,13.95
2022-08-22T00:45:09.000Z,13.89
2022-08-22T00:46:09.000Z,13.88
2022-08-22T00:47:09.000Z,13.87
2022-08-22T00:48:09.000Z,13.84
2022-08-22T00:49:09.000Z,13.81
2022-08-22T00:50:09.000Z,13.81
2022-08-22T00:51:09.000Z,13.77
2022-08-22T00:52:09.000Z,13.74
2022-08-22T00:53:09.000Z,13.71
2022-08-22T00:54:09.000Z,13.69
2022-08-22T00:55:09.000Z,13.71
2022-08-22T00:56:09.000Z,13.65
2022-08-22T00:57:09.000Z,13.67
2022-08-22T00:58:09.000Z,13.65
2022-08-22T00:59:09.000Z,13.67
2022-08-22T01:00:09.000Z,13.67
2022-08-22T01:01:10.000Z,13.67
2022-08-22T01:02:10.000Z,13.67
2022-08-22T01:03:10.000Z,13.70
2022-08-22T01:04:10.000Z,13.70
2022-08-22T01:05:10.000Z,13.69
2022-08-22T01:06:10.000Z,13.71
2022-08-22T01:07:10.000Z,13.70
2022-08-22T01:08:10.000Z,13.71
2022-08-22T01:09:10.000Z,13.71
2022-08-22T01:10:10.000Z,13.71
2022-08-22T01:11:10.000Z,13.73
2022-08-22T01:12:10.000Z,13.70
2022-08-22T01:13:10.000Z,13.70
2022-08-22T01:14:10.000Z,13.71
2022-08-22T01:15:10.000Z,13.73
2022-08-22T01:16:10.000Z,13.70
2022-08-22T01:17:10.000Z,13.70
2022-08-22T01:18:10.000Z,13.70
2022-08-22T01:19:10.000Z,13.67
2022-08-22T01:20:10.000Z,13.70
2022-08-22T01:21:11.000Z,13.67
2022-08-22T01:22:11.000Z,13.67
2022-08-22T01:23:11.000Z,13.69
2022-08-22T01:24:11.000Z,13.71
2022-08-22T01:25:11.000Z,13.67
2022-08-22T01:26:11.000Z,13.71
2022-08-22T01:27:11.000Z,13.69
2022-08-22T01:28:11.000Z,13.70
2022-08-22T01:29:11.000Z,13.67
2022-08-22T01:30:11.000Z,13.69
2022-08-22T01:31:11.000Z,13.69
2022-08-22T01:32:11.000Z,13.69
2022-08-22T01:33:11.000Z,13.70
2022-08-22T01:34:11.000Z,13.71
2022-08-22T01:35:11.000Z,13.71
2022-08-22T01:36:11.000Z,13.73
2022-08-22T01:37:11.000Z,13.76
2022-08-22T01:38:11.000Z,13.73
2022-08-22T01:39:11.000Z,13.74
2022-08-22T01:40:11.000Z,13.73
2022-08-22T01:41:11.000Z,13.73
2022-08-22T01:42:11.000Z,13.74
2022-08-22T01:43:12.000Z,13.74
2022-08-22T01:44:12.000Z,13.73
2022-08-22T01:45:12.000Z,13.73
2022-08-22T01:46:12.000Z,13.74
2022-08-22T01:47:12.000Z,13.71
2022-08-22T01:48:12.000Z,13.67
2022-08-22T01:49:12.000Z,13.67
2022-08-22T01:50:12.000Z,13.67
2022-08-22T01:51:12.000Z,13.70
2022-08-22T01:52:12.000Z,13.70
2022-08-22T01:53:12.000Z,13.67
2022-08-22T01:54:12.000Z,13.67
2022-08-22T01:55:12.000Z,13.65
2022-08-22T01:56:12.000Z,13.67
2022-08-22T01:57:12.000Z,13.65
2022-08-22T01:58:12.000Z,13.63
2022-08-22T01:59:12.000Z,13.65
2022-08-22T02:00:12.000Z,13.65
2022-08-22T02:01:12.000Z,13.62
2022-08-22T02:02:12.000Z,13.65
2022-08-22T02:02:12.000Z,13.65
2022-08-22T02:03:12.000Z,13.63
2022-08-22T02:03:12.000Z,13.63
2022-08-22T02:04:12.000Z,13.67
2022-08-22T02:04:12.000Z,13.67
2022-08-22T02:05:13.000Z,13.65
2022-08-22T02:05:13.000Z,13.65
2022-08-22T02:06:13.000Z,13.61
2022-08-22T02:06:13.000Z,13.61
2022-08-22T02:07:13.000Z,13.61
2022-08-22T02:08:13.000Z,13.61
2022-08-22T02:09:13.000Z,13.59
2022-08-22T02:10:13.000Z,13.59
2022-08-22T02:11:13.000Z,13.56
2022-08-22T02:12:13.000Z,13.58
2022-08-22T02:13:13.000Z,13.56
2022-08-22T02:14:13.000Z,13.62
2022-08-22T02:15:13.000Z,13.56
2022-08-22T02:16:13.000Z,13.56
2022-08-22T02:17:13.000Z,13.56
2022-08-22T02:18:13.000Z,13.54
2022-08-22T02:19:13.000Z,13.49
2022-08-22T02:20:13.000Z,13.52
2022-08-22T02:21:13.000Z,13.51
2022-08-22T02:22:13.000Z,13.51
2022-08-22T02:23:13.000Z,13.52
2022-08-22T02:24:14.000Z,13.52
2022-08-22T02:25:14.000Z,13.56
2022-08-22T02:26:14.000Z,13.56
2022-08-22T02:27:14.000Z,13.52
2022-08-22T02:28:14.000Z,13.54
2022-08-22T02:29:14.000Z,13.51
2022-08-22T02:30:14.000Z,13.49
2022-08-22T02:31:14.000Z,13.51
2022-08-22T02:32:14.000Z,13.51
2022-08-22T02:33:14.000Z,13.49
2022-08-22T02:34:14.000Z,13.52
2022-08-22T02:35:14.000Z,13.52
2022-08-22T02:36:14.000Z,13.49
2022-08-22T02:37:14.000Z,13.47
2022-08-22T02:38:14.000Z,13.46
2022-08-22T02:39:14.000Z,13.41
2022-08-22T02:40:14.000Z,13.40
2022-08-22T02:41:14.000Z,13.38
2022-08-22T02:42:14.000Z,13.38
2022-08-22T02:43:14.000Z,13.37
2022-08-22T02:44:15.000Z,13.32
2022-08-22T02:45:15.000Z,13.33
2022-08-22T02:46:15.000Z,13.30
2022-08-22T02:47:15.000Z,13.30
2022-08-22T02:48:15.000Z,13.25
2022-08-22T02:49:15.000Z,13.24
2022-08-22T02:50:15.000Z,13.25
2022-08-22T02:51:15.000Z,13.21
2022-08-22T02:52:15.000Z,13.22
2022-08-22T02:53:15.000Z,13.18
2022-08-22T02:54:15.000Z,13.18
2022-08-22T02:55:15.000Z,13.17
2022-08-22T02:56:15.000Z,13.17
2022-08-22T02:57:15.000Z,13.14
2022-08-22T02:58:15.000Z,13.17
2022-08-22T02:59:15.000Z,13.14
2022-08-22T03:00:15.000Z,13.14
2022-08-22T03:01:15.000Z,13.12
2022-08-22T03:02:15.000Z,13.12
2022-08-22T03:03:15.000Z,13.07
2022-08-22T03:04:16.000Z,13.06
2022-08-22T03:05:16.000Z,13.04
2022-08-22T03:06:16.000Z,13.04
2022-08-22T03:07:16.000Z,13.09
2022-08-22T03:08:16.000Z,13.11
2022-08-22T03:09:16.000Z,13.06
2022-08-22T03:10:16.000Z,13.06
2022-08-22T03:11:16.000Z,13.09
2022-08-22T03:12:16.000Z,13.12
2022-08-22T03:13:16.000Z,13.09
2022-08-22T03:14:16.000Z,13.07
2022-08-22T03:15:16.000Z,13.09
2022-08-22T03:16:16.000Z,13.09
2022-08-22T03:17:16.000Z,13.07
2022-08-22T03:18:16.000Z,13.04
2022-08-22T03:19:16.000Z,13.04
2022-08-22T03:20:16.000Z,13.06
2022-08-22T03:21:16.000Z,13.07
2022-08-22T03:22:17.000Z,13.04
2022-08-22T03:22:17.000Z,13.04
2022-08-22T03:23:17.000Z,13.04
2022-08-22T03:23:17.000Z,13.04
2022-08-22T03:24:17.000Z,13.03
2022-08-22T03:24:17.000Z,13.03
2022-08-22T03:25:17.000Z,13.06
2022-08-22T03:25:17.000Z,13.06
2022-08-22T03:26:17.000Z,13.03
2022-08-22T03:26:17.000Z,13.03
2022-08-22T03:27:17.000Z,12.99
2022-08-22T03:28:17.000Z,13.03
2022-08-22T03:29:17.000Z,13.04
2022-08-22T03:30:17.000Z,13.03
2022-08-22T03:31:17.000Z,13.02
2022-08-22T03:32:17.000Z,12.99
2022-08-22T03:33:17.000Z,13.00
2022-08-22T03:34:17.000Z,13.00
2022-08-22T03:35:17.000Z,12.99
2022-08-22T03:36:17.000Z,12.99
2022-08-22T03:37:17.000Z,12.97
2022-08-22T03:38:17.000Z,12.96
2022-08-22T03:39:17.000Z,12.96
2022-08-22T03:40:18.000Z,12.96
2022-08-22T03:41:18.000Z,12.96
2022-08-22T03:42:18.000Z,12.96
2022-08-22T03:43:18.000Z,12.93
2022-08-22T03:44:18.000Z,12.95
2022-08-22T03:45:18.000Z,12.92
2022-08-22T03:46:18.000Z,12.88
2022-08-22T03:47:18.000Z,12.95
2022-08-22T03:48:18.000Z,12.89
2022-08-22T03:49:18.000Z,12.88
2022-08-22T03:50:18.000Z,12.88
2022-08-22T03:51:18.000Z,12.87
2022-08-22T03:52:18.000Z,12.87
2022-08-22T03:53:18.000Z,12.85
2022-08-22T03:54:18.000Z,12.87
2022-08-22T03:55:18.000Z,12.84
2022-08-22T03:56:18.000Z,12.87
2022-08-22T03:57:18.000Z,12.84
2022-08-22T03:57:18.000Z,12.84
2022-08-22T03:58:19.000Z,12.84
2022-08-22T03:58:19.000Z,12.84
2022-08-22T03:59:19.000Z,12.82
2022-08-22T03:59:19.000Z,12.82
2022-08-22T04:00:19.000Z,12.82
2022-08-22T04:00:19.000Z,12.82
2022-08-22T04:01:19.000Z,12.84
2022-08-22T04:01:19.000Z,12.84
2022-08-22T04:02:19.000Z,12.85
2022-08-22T04:03:19.000Z,12.87
2022-08-22T04:04:19.000Z,12.85
2022-08-22T04:05:19.000Z,12.87
2022-08-22T04:06:19.000Z,12.87
2022-08-22T04:07:19.000Z,12.87
2022-08-22T04:08:19.000Z,12.85
2022-08-22T04:09:19.000Z,12.85
2022-08-22T04:10:19.000Z,12.84
2022-08-22T04:11:19.000Z,12.85
2022-08-22T04:12:19.000Z,12.84
2022-08-22T04:13:19.000Z,12.85
2022-08-22T04:14:19.000Z,12.82
2022-08-22T04:15:19.000Z,12.82
2022-08-22T04:16:20.000Z,12.84
2022-08-22T04:17:20.000Z,12.82
2022-08-22T04:18:20.000Z,12.79
2022-08-22T04:19:20.000Z,12.79
2022-08-22T04:20:20.000Z,12.79
2022-08-22T04:21:20.000Z,12.81
2022-08-22T04:22:20.000Z,12.79
2022-08-22T04:23:20.000Z,12.81
2022-08-22T04:24:20.000Z,12.82
2022-08-22T04:25:20.000Z,12.79
2022-08-22T04:26:20.000Z,12.82
2022-08-22T04:27:20.000Z,12.79
2022-08-22T04:28:20.000Z,12.78
2022-08-22T04:29:20.000Z,12.81
2022-08-22T04:30:20.000Z,12.78
2022-08-22T04:31:20.000Z,12.77
2022-08-22T04:32:20.000Z,12.78
2022-08-22T04:33:21.000Z,12.75
2022-08-22T04:34:21.000Z,12.81
2022-08-22T04:35:21.000Z,12.81
2022-08-22T04:36:21.000Z,12.81
2022-08-22T04:37:21.000Z,12.81
2022-08-22T04:38:21.000Z,12.81
2022-08-22T04:39:21.000Z,12.78
2022-08-22T04:40:21.000Z,12.82
2022-08-22T04:41:21.000Z,12.85
2022-08-22T04:42:21.000Z,12.84
2022-08-22T04:43:21.000Z,12.85
2022-08-22T04:44:21.000Z,12.84
2022-08-22T04:45:21.000Z,12.85
2022-08-22T04:46:21.000Z,12.85
2022-08-22T04:47:21.000Z,12.82
2022-08-22T04:48:21.000Z,12.82
2022-08-22T04:49:21.000Z,12.82
2022-08-22T04:50:22.000Z,12.84
2022-08-22T04:51:22.000Z,12.82
2022-08-22T04:52:22.000Z,12.82
2022-08-22T04:53:22.000Z,12.81
2022-08-22T04:54:22.000Z,12.82
2022-08-22T04:55:22.000Z,12.84
2022-08-22T04:56:22.000Z,12.87
2022-08-22T04:57:22.000Z,12.84
2022-08-22T04:58:22.000Z,12.84
2022-08-22T04:59:22.000Z,12.84
2022-08-22T05:00:22.000Z,12.87
2022-08-22T05:01:22.000Z,12.89
2022-08-22T05:02:22.000Z,12.87
2022-08-22T05:02:22.000Z,12.87
2022-08-22T05:03:22.000Z,12.88
2022-08-22T05:03:22.000Z,12.88
2022-08-22T05:04:22.000Z,12.89
2022-08-22T05:04:22.000Z,12.89
2022-08-22T05:05:22.000Z,12.95
2022-08-22T05:05:22.000Z,12.95
2022-08-22T05:06:22.000Z,12.92
2022-08-22T05:06:22.000Z,12.92
2022-08-22T05:07:23.000Z,12.95
2022-08-22T05:08:23.000Z,12.95
2022-08-22T05:09:23.000Z,13.00
2022-08-22T05:10:23.000Z,13.02
2022-08-22T05:11:23.000Z,13.00
2022-08-22T05:12:23.000Z,13.04
2022-08-22T05:13:23.000Z,13.03
2022-08-22T05:14:23.000Z,13.07
2022-08-22T05:15:23.000Z,13.09
2022-08-22T05:16:23.000Z,13.14
2022-08-22T05:17:23.000Z,13.15
2022-08-22T05:18:23.000Z,13.15
2022-08-22T05:19:23.000Z,13.18
2022-08-22T05:20:23.000Z,13.21
2022-08-22T05:21:23.000Z,13.24
2022-08-22T05:22:31.000Z,13.25
2022-08-22T05:23:23.000Z,13.33
2022-08-22T05:24:23.000Z,13.32
2022-08-22T05:25:23.000Z,13.33
2022-08-22T05:26:24.000Z,13.37
2022-08-22T05:27:24.000Z,13.40
2022-08-22T05:28:24.000Z,13.46
2022-08-22T05:29:24.000Z,13.51
2022-08-22T05:30:24.000Z,13.52
2022-08-22T05:31:24.000Z,13.54
2022-08-22T05:32:24.000Z,13.59
2022-08-22T05:33:24.000Z,13.62
2022-08-22T05:34:24.000Z,13.63
2022-08-22T05:35:24.000Z,13.67
2022-08-22T05:36:24.000Z,13.70
2022-08-22T05:37:24.000Z,13.74
2022-08-22T05:38:24.000Z,13.76
2022-08-22T05:39:24.000Z,13.79
2022-08-22T05:40:24.000Z,13.87
2022-08-22T05:41:24.000Z,13.89
2022-08-22T05:42:24.000Z,13.89
2022-08-22T05:43:24.000Z,13.95
2022-08-22T05:44:25.000Z,14.01
2022-08-22T05:45:25.000Z,14.04
2022-08-22T05:46:25.000Z,14.09
2022-08-22T05:47:25.000Z,14.12
2022-08-22T05:48:25.000Z,14.27
2022-08-22T05:49:25.000Z,14.32
2022-08-22T05:50:25.000Z,14.35
2022-08-22T05:51:25.000Z,14.39
2022-08-22T05:52:25.000Z,14.49
2022-08-22T05:53:25.000Z,14.56
2022-08-22T05:54:25.000Z,14.64
2022-08-22T05:55:25.000Z,14.69
2022-08-22T05:56:25.000Z,14.74
2022-08-22T05:57:25.000Z,14.83
2022-08-22T05:58:25.000Z,14.88
2022-08-22T05:59:25.000Z,14.93
2022-08-22T06:00:25.000Z,14.95
2022-08-22T06:01:25.000Z,15.03
2022-08-22T06:02:25.000Z,15.11
2022-08-22T06:03:25.000Z,15.17
2022-08-22T06:04:26.000Z,15.20
2022-08-22T06:05:26.000Z,15.26
2022-08-22T06:06:26.000Z,15.33
2022-08-22T06:07:26.000Z,15.36
2022-08-22T06:08:26.000Z,15.41
2022-08-22T06:09:26.000Z,15.45
2022-08-22T06:10:26.000Z,15.51
2022-08-22T06:11:26.000Z,15.52
2022-08-22T06:12:26.000Z,15.61
2022-08-22T06:13:26.000Z,15.66
2022-08-22T06:14:26.000Z,15.74
2022-08-22T06:15:26.000Z,15.79
2022-08-22T06:16:26.000Z,15.86
2022-08-22T06:17:26.000Z,15.94
2022-08-22T06:18:26.000Z,15.99
2022-08-22T06:19:26.000Z,16.06
2022-08-22T06:20:26.000Z,16.06
2022-08-22T06:21:26.000Z,16.15
2022-08-22T06:22:26.000Z,16.22
2022-08-22T06:23:26.000Z,16.30
2022-08-22T06:24:26.000Z,16.34
2022-08-22T06:25:26.000Z,16.38
2022-08-22T06:26:27.000Z,16.40
2022-08-22T06:27:27.000Z,16.45
2022-08-22T06:27:27.000Z,16.45
2022-08-22T06:28:27.000Z,16.50
2022-08-22T06:28:27.000Z,16.50
2022-08-22T06:29:27.000Z,16.49
2022-08-22T06:29:27.000Z,16.49
2022-08-22T06:30:27.000Z,16.58
2022-08-22T06:30:27.000Z,16.58
2022-08-22T06:31:27.000Z,16.60
2022-08-22T06:31:27.000Z,16.60
2022-08-22T06:32:27.000Z,16.62
2022-08-22T06:33:27.000Z,16.67
2022-08-22T06:34:27.000Z,16.70
2022-08-22T06:35:27.000Z,16.75
2022-08-22T06:36:27.000Z,16.77
2022-08-22T06:37:27.000Z,16.80
2022-08-22T06:38:27.000Z,16.88
2022-08-22T06:39:27.000Z,16.90
2022-08-22T06:40:27.000Z,16.93
2022-08-22T06:41:27.000Z,16.99
2022-08-22T06:42:27.000Z,16.98
2022-08-22T06:43:27.000Z,17.00
2022-08-22T06:44:27.000Z,17.04
2022-08-22T06:45:27.000Z,17.04
2022-08-22T06:46:27.000Z,17.06
2022-08-22T06:47:27.000Z,17.07
2022-08-22T06:48:27.000Z,17.10
2022-08-22T06:49:27.000Z,17.08
2022-08-22T06:50:27.000Z,17.10
2022-08-22T06:51:27.000Z,17.08
2022-08-22T06:52:27.000Z,17.08
2022-08-22T06:53:27.000Z,17.08
2022-08-22T06:54:27.000Z,17.11
2022-08-22T06:55:27.000Z,17.14
2022-08-22T06:56:28.000Z,17.15
2022-08-22T06:57:28.000Z,17.15
2022-08-22T06:58:28.000Z,17.15
2022-08-22T06:59:28.000Z,17.17
2022-08-22T07:00:28.000Z,17.17
2022-08-22T07:01:28.000Z,17.18
2022-08-22T07:02:28.000Z,17.26
2022-08-22T07:03:28.000Z,17.30
2022-08-22T07:04:28.000Z,17.33
2022-08-22T07:05:28.000Z,17.36
2022-08-22T07:06:28.000Z,17.38
2022-08-22T07:07:28.000Z,17.38
2022-08-22T07:08:28.000Z,17.43
2022-08-22T07:09:28.000Z,17.48
2022-08-22T07:10:28.000Z,17.51
2022-08-22T07:11:28.000Z,17.54
2022-08-22T07:12:28.000Z,17.59
2022-08-22T07:13:28.000Z,17.64
2022-08-22T07:14:28.000Z,17.70
2022-08-22T07:15:28.000Z,17.74
2022-08-22T07:16:28.000Z,17.79
2022-08-22T07:17:28.000Z,17.87
2022-08-22T07:18:28.000Z,17.94
2022-08-22T07:19:28.000Z,17.97
2022-08-22T07:20:28.000Z,18.03
2022-08-22T07:21:28.000Z,18.12
2022-08-22T07:22:28.000Z,18.15
2022-08-22T07:23:28.000Z,18.25
2022-08-22T07:24:28.000Z,18.28
2022-08-22T07:25:28.000Z,18.31
2022-08-22T07:26:28.000Z,18.34
2022-08-22T07:27:28.000Z,18.39
2022-08-22T07:28:28.000Z,18.43
2022-08-22T07:29:28.000Z,18.46
2022-08-22T07:30:28.000Z,18.55
2022-08-22T07:31:28.000Z,18.61
2022-08-22T07:32:28.000Z,18.64
2022-08-22T07:33:28.000Z,18.68
2022-08-22T07:34:28.000Z,18.74
2022-08-22T07:35:28.000Z,18.80
2022-08-22T07:36:28.000Z,18.84
2022-08-22T07:37:28.000Z,18.91
2022-08-22T07:38:28.000Z,18.98
2022-08-22T07:39:28.000Z,19.01
2022-08-22T07:40:28.000Z,19.05
2022-08-22T07:41:28.000Z,19.06
2022-08-22T07:42:28.000Z,19.13
2022-08-22T07:43:28.000Z,19.24
2022-08-22T07:44:28.000Z,19.31
2022-08-22T07:45:28.000Z,19.36
2022-08-22T07:46:28.000Z,19.42
2022-08-22T07:47:28.000Z,19.50
2022-08-22T07:48:28.000Z,19.55
2022-08-22T07:49:28.000Z,19.60
2022-08-22T07:50:28.000Z,19.69
2022-08-22T07:51:28.000Z,19.73
2022-08-22T07:52:28.000Z,19.76
2022-08-22T07:53:28.000Z,19.84
2022-08-22T07:54:28.000Z,19.88
2022-08-22T07:55:28.000Z,19.91
2022-08-22T07:56:28.000Z,19.93
2022-08-22T07:57:28.000Z,19.97
2022-08-22T07:58:28.000Z,19.98
2022-08-22T07:59:28.000Z,20.03
2022-08-22T08:00:28.000Z,20.06
2022-08-22T08:01:28.000Z,20.09
2022-08-22T08:02:28.000Z,20.15
2022-08-22T08:03:28.000Z,20.18
2022-08-22T08:04:28.000Z,20.23
2022-08-22T08:05:28.000Z,20.25
2022-08-22T08:06:28.000Z,20.27
2022-08-22T08:07:28.000Z,20.31
2022-08-22T08:08:28.000Z,20.31
2022-08-22T08:09:28.000Z,20.34
2022-08-22T08:10:28.000Z,20.39
2022-08-22T08:11:28.000Z,20.41
2022-08-22T08:12:28.000Z,20.41
2022-08-22T08:13:28.000Z,20.46
2022-08-22T08:14:28.000Z,20.49
2022-08-22T08:15:28.000Z,20.54
2022-08-22T08:16:28.000Z,20.56
2022-08-22T08:17:28.000Z,20.61
2022-08-22T08:18:28.000Z,20.62
2022-08-22T08:19:28.000Z,20.62
2022-08-22T08:20:28.000Z,20.64
2022-08-22T08:21:28.000Z,20.66
2022-08-22T08:22:28.000Z,20.71
2022-08-22T08:23:28.000Z,20.76
2022-08-22T08:24:28.000Z,20.79
2022-08-22T08:25:28.000Z,20.80
2022-08-22T08:26:28.000Z,20.80
2022-08-22T08:27:28.000Z,20.84
2022-08-22T08:28:28.000Z,20.84
2022-08-22T08:29:28.000Z,20.86
2022-08-22T08:30:28.000Z,20.90
2022-08-22T08:31:28.000Z,20.95
2022-08-22T08:32:28.000Z,21.01
2022-08-22T08:33:28.000Z,21.02
2022-08-22T08:34:28.000Z,21.05
2022-08-22T08:35:28.000Z,21.14
2022-08-22T08:36:28.000Z,21.19
2022-08-22T08:37:28.000Z,21.23
2022-08-22T08:38:28.000Z,21.23
2022-08-22T08:39:28.000Z,21.23
2022-08-22T08:40:28.000Z,21.29
2022-08-22T08:41:28.000Z,21.29
2022-08-22T08:42:28.000Z,21.30
2022-08-22T08:43:28.000Z,21.32
2022-08-22T08:44:28.000Z,21.39
2022-08-22T08:45:28.000Z,21.39
2022-08-22T08:46:28.000Z,21.44
2022-08-22T08:47:28.000Z,21.42
2022-08-22T08:48:28.000Z,21.46
2022-08-22T08:49:28.000Z,21.51
2022-08-22T08:50:28.000Z,21.51
2022-08-22T08:51:28.000Z,21.50
2022-08-22T08:52:28.000Z,21.50
2022-08-22T08:53:28.000Z,21.53
2022-08-22T08:54:28.000Z,21.53
2022-08-22T08:55:28.000Z,21.54
2022-08-22T08:56:28.000Z,21.61
2022-08-22T08:57:28.000Z,21.66
2022-08-22T08:58:28.000Z,21.69
2022-08-22T08:59:28.000Z,21.74
2022-08-22T09:00:28.000Z,21.79
2022-08-22T09:01:28.000Z,21.81
2022-08-22T09:02:28.000Z,21.82
2022-08-22T09:03:28.000Z,21.76
2022-08-22T09:04:28.000Z,21.79
2022-08-22T09:05:28.000Z,21.78
2022-08-22T09:06:28.000Z,21.79
2022-08-22T09:07:28.000Z,21.81
2022-08-22T09:08:28.000Z,21.82
2022-08-22T09:09:28.000Z,21.82
2022-08-22T09:10:28.000Z,21.90
2022-08-22T09:11:28.000Z,21.92
2022-08-22T09:12:28.000Z,21.95
2022-08-22T09:13:28.000Z,21.98
2022-08-22T09:14:28.000Z,21.99
2022-08-22T09:15:27.000Z,22.04
2022-08-22T09:16:27.000Z,22.04
2022-08-22T09:17:27.000Z,22.06
2022-08-22T09:17:27.000Z,22.06
2022-08-22T09:18:27.000Z,22.07
2022-08-22T09:18:27.000Z,22.07
2022-08-22T09:19:27.000Z,22.04
2022-08-22T09:19:27.000Z,22.04
2022-08-22T09:20:27.000Z,22.01
2022-08-22T09:20:27.000Z,22.01
2022-08-22T09:21:27.000Z,21.98
2022-08-22T09:21:27.000Z,21.98
2022-08-22T09:22:27.000Z,21.95
2022-08-22T09:23:27.000Z,22.01
2022-08-22T09:24:27.000Z,22.09
2022-08-22T09:25:27.000Z,22.13
2022-08-22T09:26:27.000Z,22.19
2022-08-22T09:27:27.000Z,22.27
2022-08-22T09:28:27.000Z,22.27
2022-08-22T09:29:27.000Z,22.32
2022-08-22T09:30:27.000Z,22.34
2022-08-22T09:31:27.000Z,22.35
2022-08-22T09:32:27.000Z,22.38
2022-08-22T09:33:27.000Z,22.38
2022-08-22T09:34:27.000Z,22.35
2022-08-22T09:35:27.000Z,22.35
2022-08-22T09:36:27.000Z,22.41
2022-08-22T09:37:27.000Z,22.43
2022-08-22T09:38:27.000Z,22.38
2022-08-22T09:39:27.000Z,22.39
2022-08-22T09:40:27.000Z,22.43
2022-08-22T09:41:27.000Z,22.43
2022-08-22T09:42:27.000Z,22.46
2022-08-22T09:43:27.000Z,22.46
2022-08-22T09:44:27.000Z,22.50
2022-08-22T09:45:27.000Z,22.50
2022-08-22T09:46:27.000Z,22.49
2022-08-22T09:47:27.000Z,22.43
2022-08-22T09:48:27.000Z,22.43
2022-08-22T09:49:27.000Z,22.46
2022-08-22T09:50:27.000Z,22.46
2022-08-22T09:51:27.000Z,22.43
2022-08-22T09:52:26.000Z,22.49
2022-08-22T09:53:26.000Z,22.53
2022-08-22T09:54:26.000Z,22.59
2022-08-22T09:55:26.000Z,22.64
2022-08-22T09:56:26.000Z,22.64
2022-08-22T09:57:26.000Z,22.67
2022-08-22T09:58:26.000Z,22.67
2022-08-22T09:59:26.000Z,22.69
2022-08-22T10:00:26.000Z,22.68
2022-08-22T10:01:26.000Z,22.69
2022-08-22T10:02:26.000Z,22.68
2022-08-22T10:03:26.000Z,22.67
2022-08-22T10:04:26.000Z,22.68
2022-08-22T10:05:26.000Z,22.69
2022-08-22T10:06:26.000Z,22.75
2022-08-22T10:07:26.000Z,22.78
2022-08-22T10:08:26.000Z,22.80
2022-08-22T10:09:26.000Z,22.78
2022-08-22T10:10:26.000Z,22.83
2022-08-22T10:11:26.000Z,22.82
2022-08-22T10:12:26.000Z,22.82
2022-08-22T10:12:26.000Z,22.82
2022-08-22T10:13:26.000Z,22.87
2022-08-22T10:13:26.000Z,22.87
2022-08-22T10:14:26.000Z,22.86
2022-08-22T10:14:26.000Z,22.86
2022-08-22T10:15:26.000Z,22.90
2022-08-22T10:15:26.000Z,22.90
2022-08-22T10:16:26.000Z,22.89
2022-08-22T10:16:26.000Z,22.89
2022-08-22T10:17:26.000Z,22.90
2022-08-22T10:18:26.000Z,22.96
2022-08-22T10:19:26.000Z,22.97
2022-08-22T10:20:26.000Z,23.02
2022-08-22T10:21:26.000Z,23.07
2022-08-22T10:22:26.000Z,23.12
2022-08-22T10:23:26.000Z,23.09
2022-08-22T10:24:26.000Z,23.15
2022-08-22T10:25:26.000Z,23.19
2022-08-22T10:26:26.000Z,23.23
2022-08-22T10:27:26.000Z,23.31
2022-08-22T10:28:26.000Z,23.40
2022-08-22T10:29:26.000Z,23.39
2022-08-22T10:30:26.000Z,23.40
2022-08-22T10:31:25.000Z,23.35
2022-08-22T10:32:25.000Z,23.40
2022-08-22T10:33:25.000Z,23.34
2022-08-22T10:34:25.000Z,23.40
2022-08-22T10:35:25.000Z,23.46
2022-08-22T10:36:25.000Z,23.45
2022-08-22T10:37:25.000Z,23.42
2022-08-22T10:38:25.000Z,23.40
2022-08-22T10:39:25.000Z,23.43
2022-08-22T10:40:25.000Z,23.40
2022-08-22T10:41:25.000Z,23.43
2022-08-22T10:42:25.000Z,23.43
2022-08-22T10:43:25.000Z,23.47
2022-08-22T10:44:25.000Z,23.46
2022-08-22T10:45:25.000Z,23.46
2022-08-22T10:46:25.000Z,23.49
2022-08-22T10:47:25.000Z,23.46
2022-08-22T10:48:25.000Z,23.50
2022-08-22T10:49:25.000Z,23.53
2022-08-22T10:50:25.000Z,23.53
2022-08-22T10:51:25.000Z,23.55
2022-08-22T10:52:25.000Z,23.57
2022-08-22T10:53:25.000Z,23.57
2022-08-22T10:54:25.000Z,23.52
2022-08-22T10:55:25.000Z,23.52
2022-08-22T10:56:25.000Z,23.49
2022-08-22T10:57:25.000Z,23.52
2022-08-22T10:58:25.000Z,23.52
2022-08-22T10:59:24.000Z,23.58
2022-08-22T11:00:24.000Z,23.64
2022-08-22T11:01:24.000Z,23.65
2022-08-22T11:02:24.000Z,23.68
2022-08-22T11:03:24.000Z,23.67
2022-08-22T11:04:24.000Z,23.64
2022-08-22T11:05:24.000Z,23.60
2022-08-22T11:06:24.000Z,23.60
2022-08-22T11:07:24.000Z,23.55
2022-08-22T11:08:24.000Z,23.52
2022-08-22T11:09:24.000Z,23.49
2022-08-22T11:10:24.000Z,23.45
2022-08-22T11:11:24.000Z,23.49
2022-08-22T11:12:24.000Z,23.47
2022-08-22T11:13:24.000Z,23.46
2022-08-22T11:14:24.000Z,23.34
2022-08-22T11:15:24.000Z,23.35
2022-08-22T11:16:24.000Z,23.39
2022-08-22T11:17:24.000Z,23.45
2022-08-22T11:18:24.000Z,23.49
2022-08-22T11:19:24.000Z,23.50
2022-08-22T11:20:24.000Z,23.49
2022-08-22T11:21:24.000Z,23.49
2022-08-22T11:22:23.000Z,23.52
2022-08-22T11:22:23.000Z,23.52
2022-08-22T11:23:23.000Z,23.53
2022-08-22T11:23:23.000Z,23.53
2022-08-22T11:24:23.000Z,23.60
2022-08-22T11:24:23.000Z,23.60
2022-08-22T11:25:23.000Z,23.67
2022-08-22T11:25:23.000Z,23.67
2022-08-22T11:26:23.000Z,23.67
2022-08-22T11:26:23.000Z,23.67
2022-08-22T11:27:23.000Z,23.70
2022-08-22T11:28:23.000Z,23.75
2022-08-22T11:29:23.000Z,23.83
2022-08-22T11:30:23.000Z,23.94
2022-08-22T11:31:23.000Z,24.00
2022-08-22T11:32:23.000Z,24.01
2022-08-22T11:32:23.000Z,24.01
2022-08-22T11:33:23.000Z,24.02
2022-08-22T11:33:23.000Z,24.02
2022-08-22T11:34:23.000Z,24.04
2022-08-22T11:34:23.000Z,24.04
2022-08-22T11:35:23.000Z,24.02
2022-08-22T11:35:23.000Z,24.02
2022-08-22T11:36:23.000Z,23.98
2022-08-22T11:36:23.000Z,23.98
2022-08-22T11:37:23.000Z,24.01
2022-08-22T11:38:23.000Z,24.01
2022-08-22T11:39:23.000Z,24.00
2022-08-22T11:40:23.000Z,24.01
2022-08-22T11:41:23.000Z,23.97
2022-08-22T11:42:23.000Z,23.97
2022-08-22T11:43:23.000Z,23.95
2022-08-22T11:44:23.000Z,23.97
2022-08-22T11:45:23.000Z,23.97
2022-08-22T11:46:22.000Z,23.92
2022-08-22T11:47:22.000Z,23.90
2022-08-22T11:48:22.000Z,23.94
2022-08-22T11:49:22.000Z,23.87
2022-08-22T11:50:22.000Z,23.86
2022-08-22T11:51:22.000Z,23.85
2022-08-22T11:52:22.000Z,23.79
2022-08-22T11:53:22.000Z,23.76
2022-08-22T11:54:22.000Z,23.70
2022-08-22T11:55:22.000Z,23.64
2022-08-22T11:56:22.000Z,23.65
2022-08-22T11:57:22.000Z,23.65
2022-08-22T11:58:22.000Z,23.62
2022-08-22T11:59:22.000Z,23.64
2022-08-22T12:00:22.000Z,23.60
2022-08-22T12:01:22.000Z,23.58
2022-08-22T12:02:22.000Z,23.57